Time;durP1;ratioP1;P1;durP2;ratioP2;P2;SDS_P1;SDS_P2;PMS_P1;PMS_P2;Temp;Humidity;BMP_temperature;BMP_pressure;BME280_temperature;BME280_humidity;BME280_pressure;Samples;Min_cycle;Max_cycle;Signal;HPM_P1;HPM_P2
2023/09/10 00:01:57;;;;;;;14.63;12.00;;;;;;;19.30;100.00;98312.44;4974812;28;20748;-80
2023/09/10 00:04:24;;;;;;;17.70;12.37;;;;;;;19.32;100.00;98310.47;4974974;28;20217;-79
2023/09/10 00:06:50;;;;;;;13.20;11.30;;;;;;;19.28;100.00;98309.94;4975324;28;20210;-79
2023/09/10 00:09:17;;;;;;;13.57;10.87;;;;;;;19.28;100.00;98315.31;4975195;28;20202;-79
2023/09/10 00:11:43;;;;;;;14.73;11.30;;;;;;;19.32;100.00;98322.03;4974633;28;20246;-79
2023/09/10 00:14:10;;;;;;;13.67;11.70;;;;;;;19.31;100.00;98314.97;4975499;28;20206;-80
2023/09/10 00:16:36;;;;;;;14.17;10.60;;;;;;;19.29;100.00;98311.63;4974966;28;20222;-79
2023/09/10 00:19:04;;;;;;;13.27;10.33;;;;;;;19.32;100.00;98316.66;4974548;28;20234;-79
2023/09/10 00:21:31;;;;;;;14.40;10.73;;;;;;;19.31;100.00;98314.13;4974559;28;20318;-79
2023/09/10 00:23:57;;;;;;;12.97;9.40;;;;;;;19.26;100.00;98322.63;4975274;28;20610;-79
2023/09/10 00:26:26;;;;;;;11.70;10.13;;;;;;;19.24;100.00;98319.28;4975058;28;20222;-79
2023/09/10 00:28:52;;;;;;;12.53;10.40;;;;;;;19.18;100.00;98325.22;4975272;28;20654;-79
2023/09/10 00:31:19;;;;;;;13.80;10.73;;;;;;;19.13;100.00;98316.81;4979957;28;20234;-79
2023/09/10 00:33:45;;;;;;;13.03;10.80;;;;;;;19.07;100.00;98314.75;4981987;28;20217;-80
2023/09/10 00:36:13;;;;;;;12.37;11.07;;;;;;;19.06;100.00;98317.56;4982585;28;20213;-80
2023/09/10 00:38:39;;;;;;;13.77;11.63;;;;;;;19.06;100.00;98323.78;4981783;28;20237;-80
2023/09/10 00:41:07;;;;;;;12.13;10.33;;;;;;;19.05;100.00;98308.72;4981983;28;20231;-80
2023/09/10 00:43:34;;;;;;;14.93;11.23;;;;;;;19.06;100.00;98310.38;4982382;28;20304;-79
2023/09/10 00:46:00;;;;;;;17.67;13.03;;;;;;;19.08;100.00;98308.38;4982298;28;20247;-80
2023/09/10 00:48:27;;;;;;;14.07;11.43;;;;;;;19.10;100.00;98306.41;4982048;28;20573;-79
2023/09/10 00:50:53;;;;;;;14.40;11.43;;;;;;;19.15;100.00;98304.09;4981879;28;20238;-80
2023/09/10 00:53:22;;;;;;;13.07;10.73;;;;;;;19.16;100.00;98302.25;4982771;28;20221;-79
2023/09/10 00:55:50;;;;;;;14.33;11.00;;;;;;;19.21;100.00;98311.53;4982287;28;20210;-79
2023/09/10 00:58:17;;;;;;;12.93;11.20;;;;;;;19.22;100.00;98305.22;4982231;28;20222;-80
2023/09/10 01:00:44;;;;;;;12.83;11.43;;;;;;;19.22;100.00;98299.84;4981606;28;20262;-79
2023/09/10 01:03:10;;;;;;;14.67;11.40;;;;;;;19.24;100.00;98303.19;4983182;28;20214;-79
2023/09/10 01:05:37;;;;;;;12.43;11.10;;;;;;;19.23;100.00;98306.88;4982429;28;20206;-79
2023/09/10 01:08:04;;;;;;;13.57;11.73;;;;;;;19.20;100.00;98306.31;4982806;28;20211;-79
2023/09/10 01:10:41;;;;;;;15.30;11.73;;;;;;;19.22;100.00;98302.53;4981584;28;20248;-79
2023/09/10 01:13:13;;;;;;;14.73;11.00;;;;;;;19.19;100.00;98305.47;4981843;28;20218;-80
2023/09/10 01:15:44;;;;;;;14.47;11.80;;;;;;;19.14;100.00;98302.41;4982214;28;20210;-79
2023/09/10 01:18:16;;;;;;;12.87;10.90;;;;;;;19.09;100.00;98309.25;4981651;28;20217;-80
2023/09/10 01:20:55;;;;;;;14.27;11.00;;;;;;;19.05;100.00;98303.34;4981957;28;20231;-79
2023/09/10 01:23:32;;;;;;;15.40;11.57;;;;;;;19.00;100.00;98300.28;4981829;28;20210;-80
2023/09/10 01:25:59;;;;;;;13.83;11.30;;;;;;;18.90;100.00;98312.91;4981958;28;20199;-80
2023/09/10 01:28:26;;;;;;;14.83;11.77;;;;;;;18.84;100.00;98313.53;4981934;28;20215;-79
2023/09/10 01:30:52;;;;;;;15.43;12.67;;;;;;;18.79;100.00;98306.94;4981756;28;20230;-80
2023/09/10 01:33:24;;;;;;;16.60;12.80;;;;;;;18.74;100.00;98303.88;4981461;28;20218;-80
2023/09/10 01:36:00;;;;;;;16.93;13.43;;;;;;;18.65;100.00;98305.63;4982015;28;20206;-79
2023/09/10 01:38:31;;;;;;;16.33;13.37;;;;;;;18.62;100.00;98305.09;4981683;28;20221;-80
2023/09/10 01:41:04;;;;;;;16.60;13.50;;;;;;;18.58;100.00;98309.06;4981719;28;20583;-79
2023/09/10 01:43:33;;;;;;;17.00;13.67;;;;;;;18.53;100.00;98312.19;4977645;28;20219;-80
2023/09/10 01:45:59;;;;;;;18.43;14.77;;;;;;;18.54;100.00;98313.88;4978363;28;20214;-80
2023/09/10 01:48:27;;;;;;;17.80;14.30;;;;;;;18.55;100.00;98314.72;4977727;28;20215;-79
2023/09/10 01:50:54;;;;;;;16.70;13.30;;;;;;;18.54;100.00;98313.88;4977720;28;20234;-79
2023/09/10 01:53:21;;;;;;;15.93;13.43;;;;;;;18.51;100.00;98308.84;4978198;28;20301;-79
2023/09/10 01:55:47;;;;;;;15.33;13.50;;;;;;;18.45;100.00;98306.75;4978271;28;20226;-79
2023/09/10 01:58:15;;;;;;;17.03;13.80;;;;;;;18.43;100.00;98305.22;4978101;28;20214;-79
2023/09/10 02:00:42;;;;;;;17.23;14.27;;;;;;;18.41;100.00;98305.38;4977461;28;20616;-79
2023/09/10 02:03:09;;;;;;;16.57;13.17;;;;;;;18.39;100.00;98303.84;4977555;28;20211;-79
2023/09/10 02:05:35;;;;;;;18.87;13.67;;;;;;;18.38;100.00;98300.34;4977917;28;20214;-79
2023/09/10 02:08:02;;;;;;;17.00;12.73;;;;;;;18.37;100.00;98305.84;4977854;28;20226;-79
2023/09/10 02:10:28;;;;;;;16.10;12.47;;;;;;;18.34;100.00;98306.97;4976966;28;20238;-79
2023/09/10 02:12:55;;;;;;;16.97;12.70;;;;;;;18.26;100.00;98298.81;4977587;28;20599;-79
2023/09/10 02:15:23;;;;;;;13.87;12.20;;;;;;;18.25;100.00;98297.16;4977470;28;20214;-79
2023/09/10 02:17:49;;;;;;;16.90;12.90;;;;;;;18.27;100.00;98292.47;4976927;28;20211;-79
2023/09/10 02:20:16;;;;;;;16.83;13.43;;;;;;;18.20;100.00;98302.09;4977345;28;20607;-79
2023/09/10 02:22:42;;;;;;;14.37;11.73;;;;;;;18.15;100.00;98296.34;4977392;28;20713;-79
2023/09/10 02:25:09;;;;;;;14.10;12.10;;;;;;;18.12;100.00;98296.66;4977704;28;20595;-80
2023/09/10 02:27:36;;;;;;;17.20;12.47;;;;;;;18.08;100.00;98295.25;4977679;28;20221;-80
2023/09/10 02:30:03;;;;;;;14.97;12.23;;;;;;;18.03;100.00;98288.66;4976924;28;20207;-79
2023/09/10 02:32:32;;;;;;;14.07;12.27;;;;;;;17.99;100.00;98301.47;4976653;28;20231;-79
2023/09/10 02:34:59;;;;;;;13.83;11.77;;;;;;;17.95;100.00;98294.75;4977135;28;20586;-79
2023/09/10 02:37:25;;;;;;;15.03;11.63;;;;;;;17.90;100.00;98297.03;4976681;28;20207;-79
2023/09/10 02:39:51;;;;;;;15.97;12.20;;;;;;;17.92;100.00;98304.91;4976535;28;20321;-79
2023/09/10 02:42:18;;;;;;;18.00;13.20;;;;;;;17.92;100.00;98295.03;4976210;28;20231;-79
2023/09/10 02:44:45;;;;;;;16.10;12.93;;;;;;;17.95;100.00;98294.75;4977061;28;20210;-79
2023/09/10 02:47:11;;;;;;;15.23;12.17;;;;;;;17.96;100.00;98293.78;4975901;28;20222;-79
2023/09/10 02:49:39;;;;;;;15.93;12.10;;;;;;;17.93;100.00;98295.91;4975908;28;20602;-79
2023/09/10 02:52:05;;;;;;;15.07;12.20;;;;;;;17.90;100.00;98296.19;4975234;28;20227;-79
2023/09/10 02:54:34;;;;;;;15.40;12.33;;;;;;;17.87;100.00;98293.81;4975058;28;20218;-79
2023/09/10 02:57:01;;;;;;;15.93;12.57;;;;;;;17.84;100.00;98286.94;4975722;28;20266;-79
2023/09/10 02:59:28;;;;;;;17.33;12.93;;;;;;;17.85;100.00;98299.31;4975422;28;20538;-79
2023/09/10 03:01:54;;;;;;;16.00;12.50;;;;;;;17.85;100.00;98293.13;4976061;28;20230;-79
2023/09/10 03:04:21;;;;;;;14.57;12.67;;;;;;;17.87;100.00;98291.13;4976405;28;20214;-79
2023/09/10 03:06:51;;;;;;;19.07;14.93;;;;;;;17.83;100.00;98290.59;4976037;28;20623;-79
2023/09/10 03:09:18;;;;;;;16.63;12.77;;;;;;;17.74;100.00;98302.16;4976161;28;20623;-79
2023/09/10 03:11:46;;;;;;;16.33;13.13;;;;;;;17.65;100.00;98292.34;4975553;28;20246;-79
2023/09/10 03:14:12;;;;;;;18.57;13.93;;;;;;;17.56;100.00;98298.56;4975829;28;20221;-79
2023/09/10 03:16:40;;;;;;;16.53;12.80;;;;;;;17.54;100.00;98300.53;4974215;28;20221;-79
2023/09/10 03:19:07;;;;;;;16.50;13.30;;;;;;;17.51;100.00;98306.19;4974076;28;20742;-79
2023/09/10 03:21:33;;;;;;;16.27;13.27;;;;;;;17.55;100.00;98296.06;4973837;28;20230;-79
2023/09/10 03:24:01;;;;;;;17.83;13.97;;;;;;;17.53;100.00;98308.69;4974064;28;20217;-79
2023/09/10 03:26:28;;;;;;;17.43;13.73;;;;;;;17.52;100.00;98305.19;4973947;28;20733;-79
2023/09/10 03:28:54;;;;;;;15.17;12.83;;;;;;;17.51;100.00;98306.19;4973799;28;20215;-79
2023/09/10 03:31:21;;;;;;;15.43;12.87;;;;;;;17.49;100.00;98301.97;4973792;28;20426;-79
2023/09/10 03:33:49;;;;;;;17.63;13.23;;;;;;;17.46;100.00;98296.91;4973943;28;20221;-79
2023/09/10 03:36:15;;;;;;;17.40;13.70;;;;;;;17.42;100.00;98295.50;4973883;28;20218;-79
2023/09/10 03:38:42;;;;;;;16.33;13.30;;;;;;;17.42;100.00;98299.03;4973503;28;20699;-79
2023/09/10 03:41:10;;;;;;;16.03;12.97;;;;;;;17.42;100.00;98300.84;4973692;28;20724;-79
2023/09/10 03:43:36;;;;;;;16.53;12.67;;;;;;;17.41;100.00;98300.00;4973478;28;20214;-78
2023/09/10 03:46:03;;;;;;;15.90;13.47;;;;;;;17.40;100.00;98298.34;4973912;28;20206;-79
2023/09/10 03:48:29;;;;;;;18.80;13.30;;;;;;;17.39;100.00;98293.13;4973861;28;20572;-79
2023/09/10 03:50:55;;;;;;;19.00;14.03;;;;;;;17.38;100.00;98289.59;4973180;28;20230;-79
2023/09/10 03:53:22;;;;;;;16.80;13.50;;;;;;;17.39;100.00;98299.31;4973439;28;20229;-79
2023/09/10 03:55:48;;;;;;;17.53;13.90;;;;;;;17.36;100.00;98296.03;4973541;28;20241;-79
2023/09/10 03:58:16;;;;;;;15.63;12.97;;;;;;;17.32;100.00;98295.47;4973631;28;20210;-79
2023/09/10 04:00:43;;;;;;;21.93;13.40;;;;;;;17.31;100.00;98295.66;4973098;28;20241;-79
2023/09/10 04:03:09;;;;;;;16.50;14.17;;;;;;;17.26;100.00;98300.56;4973613;28;20211;-79
2023/09/10 04:05:36;;;;;;;16.57;13.53;;;;;;;17.27;100.00;98296.91;4972889;28;20211;-79
2023/09/10 04:08:04;;;;;;;18.43;14.73;;;;;;;17.21;100.00;98303.69;4973846;28;20629;-79
2023/09/10 04:10:30;;;;;;;18.43;13.70;;;;;;;17.20;100.00;98298.47;4973215;28;20242;-79
2023/09/10 04:12:56;;;;;;;18.93;14.67;;;;;;;17.16;100.00;98300.59;4973733;28;20210;-79
2023/09/10 04:15:24;;;;;;;18.87;14.90;;;;;;;17.11;100.00;98297.50;4973696;28;20324;-79
2023/09/10 04:17:51;;;;;;;19.23;15.03;;;;;;;17.09;100.00;98307.50;4973319;28;20210;-79
2023/09/10 04:20:19;;;;;;;19.97;14.77;;;;;;;17.06;100.00;98302.41;4972763;28;20234;-79
2023/09/10 04:22:46;;;;;;;16.43;13.27;;;;;;;17.06;100.00;98299.75;4972972;28;20262;-79
2023/09/10 04:25:13;;;;;;;17.83;13.73;;;;;;;17.03;100.00;98309.88;4973056;28;20658;-79
2023/09/10 04:27:39;;;;;;;17.97;13.73;;;;;;;16.97;100.00;98311.28;4973066;28;20218;-79
2023/09/10 04:30:07;;;;;;;18.90;14.63;;;;;;;16.93;100.00;98303.69;4972931;28;20207;-79
2023/09/10 04:32:35;;;;;;;19.90;14.40;;;;;;;16.96;100.00;98308.75;4972989;28;20207;-79
2023/09/10 04:35:05;;;;;;;16.97;13.00;;;;;;;16.94;100.00;98302.72;4973158;28;20207;-79
2023/09/10 04:37:32;;;;;;;17.97;13.97;;;;;;;16.92;100.00;98307.34;4972928;28;20637;-79
2023/09/10 04:39:59;;;;;;;17.80;13.67;;;;;;;16.89;100.00;98308.47;4972441;28;20669;-79
2023/09/10 04:42:25;;;;;;;18.63;13.90;;;;;;;16.85;100.00;98312.41;4974471;28;20215;-79
2023/09/10 04:44:52;;;;;;;17.80;14.03;;;;;;;16.84;100.00;98308.06;4975415;28;20210;-79
2023/09/10 04:47:18;;;;;;;19.03;14.87;;;;;;;16.81;100.00;98305.66;4975246;28;20214;-79
2023/09/10 04:49:46;;;;;;;17.67;14.20;;;;;;;16.82;100.00;98310.00;4974447;28;20211;-79
2023/09/10 04:52:15;;;;;;;16.60;13.43;;;;;;;16.81;100.00;98316.34;4974731;28;20241;-79
2023/09/10 04:54:41;;;;;;;18.20;13.83;;;;;;;16.80;100.00;98314.66;4974819;28;20275;-79
2023/09/10 04:57:08;;;;;;;17.77;14.10;;;;;;;16.79;100.00;98315.66;4975000;28;20207;-79
2023/09/10 04:59:34;;;;;;;19.60;14.50;;;;;;;16.77;100.00;98314.94;4975133;28;20210;-79
2023/09/10 05:02:01;;;;;;;18.00;14.00;;;;;;;16.76;100.00;98313.25;4974911;28;20238;-79
2023/09/10 05:04:27;;;;;;;19.37;15.63;;;;;;;16.80;100.00;98320.00;4974845;28;20215;-79
2023/09/10 05:06:56;;;;;;;20.60;15.17;;;;;;;16.84;100.00;98321.41;4975787;28;20211;-79
2023/09/10 05:09:23;;;;;;;17.30;14.33;;;;;;;16.86;100.00;98314.09;4975078;28;20215;-79
2023/09/10 05:11:49;;;;;;;19.30;14.60;;;;;;;16.90;100.00;98326.19;4974464;28;20607;-79
2023/09/10 05:14:17;;;;;;;19.33;14.27;;;;;;;16.92;100.00;98321.56;4974940;28;20222;-79
2023/09/10 05:16:43;;;;;;;18.07;14.40;;;;;;;17.03;100.00;98331.25;4976230;28;20225;-79
2023/09/10 05:19:10;;;;;;;19.03;15.00;;;;;;;17.04;100.00;98328.44;4978813;28;20218;-79
2023/09/10 05:21:36;;;;;;;21.87;15.43;;;;;;;17.09;100.00;98334.19;4978380;28;20317;-79
2023/09/10 05:24:05;;;;;;;18.10;14.63;;;;;;;17.07;100.00;98336.16;4978716;28;20211;-79
2023/09/10 05:26:32;;;;;;;19.20;14.37;;;;;;;17.05;100.00;98335.47;4977146;28;20576;-79
2023/09/10 05:28:58;;;;;;;18.20;14.30;;;;;;;17.05;100.00;98338.13;4979057;28;20206;-79
2023/09/10 05:31:25;;;;;;;19.13;14.60;;;;;;;17.06;100.00;98333.66;4978397;28;20235;-79
2023/09/10 05:33:51;;;;;;;17.93;13.93;;;;;;;17.12;100.00;98336.56;4978510;28;20211;-79
2023/09/10 05:36:18;;;;;;;17.60;13.57;;;;;;;17.14;100.00;98334.59;4978743;28;20650;-79
2023/09/10 05:38:44;;;;;;;18.73;14.20;;;;;;;17.19;100.00;98340.34;4978396;28;20207;-79
2023/09/10 05:41:12;;;;;;;18.40;14.53;;;;;;;17.28;100.00;98339.53;4978100;28;20249;-79
2023/09/10 05:43:39;;;;;;;18.50;14.67;;;;;;;17.38;100.00;98337.69;4977883;28;20577;-79
2023/09/10 05:46:05;;;;;;;18.07;14.33;;;;;;;17.46;100.00;98335.16;4978432;28;20210;-79
2023/09/10 05:48:31;;;;;;;19.13;14.53;;;;;;;17.50;100.00;98331.19;4978201;28;20551;-79
2023/09/10 05:50:58;;;;;;;19.77;14.97;;;;;;;17.57;100.00;98332.34;4977796;28;20249;-79
2023/09/10 05:53:25;;;;;;;17.07;14.20;;;;;;;17.61;100.00;98332.88;4978426;28;20213;-79
2023/09/10 05:55:52;;;;;;;18.37;14.10;;;;;;;17.65;100.00;98334.25;4978566;28;20218;-79
2023/09/10 05:58:21;;;;;;;20.33;15.33;;;;;;;17.76;100.00;98336.78;4978335;28;20222;-79
2023/09/10 06:00:48;;;;;;;18.53;14.40;;;;;;;17.80;100.00;98335.50;4978512;28;20249;-79
2023/09/10 06:03:14;;;;;;;17.80;14.40;;;;;;;17.90;100.00;98345.16;4978688;28;20584;-79
2023/09/10 06:05:41;;;;;;;19.30;14.73;;;;;;;17.97;100.00;98346.25;4978645;28;20211;-79
2023/09/10 06:08:07;;;;;;;18.10;14.13;;;;;;;18.03;100.00;98347.50;4979450;28;20633;-79
2023/09/10 06:10:34;;;;;;;16.27;14.10;;;;;;;18.04;100.00;98358.06;4978258;28;20238;-79
2023/09/10 06:13:00;;;;;;;15.90;13.53;;;;;;;18.12;100.00;98358.19;4978411;28;20226;-79
2023/09/10 06:15:28;;;;;;;16.27;13.03;;;;;;;18.13;100.00;98361.69;4978817;28;20211;-80
2023/09/10 06:17:55;;;;;;;19.13;14.13;;;;;;;18.19;100.00;98363.78;4977698;28;20584;-79
2023/09/10 06:20:22;;;;;;;16.13;13.13;;;;;;;18.27;100.00;98359.38;4977857;28;20389;-81
2023/09/10 06:22:48;;;;;;;16.30;13.30;;;;;;;18.37;100.00;98365.56;4978333;28;20218;-80
2023/09/10 06:25:15;;;;;;;18.20;14.17;;;;;;;18.47;100.00;98362.84;4978654;28;20211;-80
2023/09/10 06:27:41;;;;;;;17.93;14.30;;;;;;;18.60;100.00;98364.13;4978099;28;20320;-79
2023/09/10 06:30:08;;;;;;;16.30;13.37;;;;;;;18.70;100.00;98359.56;4978163;28;20203;-81
2023/09/10 06:32:36;;;;;;;15.93;12.93;;;;;;;18.81;100.00;98350.47;4979347;28;20636;-79
2023/09/10 06:35:03;;;;;;;15.37;12.60;;;;;;;18.95;100.00;98358.84;4979031;28;20221;-80
2023/09/10 06:37:29;;;;;;;15.97;12.87;;;;;;;18.99;100.00;98362.91;4978179;28;20309;-80
2023/09/10 06:39:56;;;;;;;15.37;12.80;;;;;;;19.09;100.00;98363.66;4978578;28;20211;-80
2023/09/10 06:42:22;;;;;;;15.90;13.10;;;;;;;19.19;100.00;98367.09;4978440;28;20211;-80
2023/09/10 06:44:49;;;;;;;15.13;12.33;;;;;;;19.31;100.00;98363.22;4979222;28;20217;-80
2023/09/10 06:47:15;;;;;;;15.87;12.43;;;;;;;19.39;100.00;98365.97;4978575;28;20753;-80
2023/09/10 06:49:43;;;;;;;15.30;12.80;;;;;;;19.47;100.00;98368.72;4978895;28;20214;-80
2023/09/10 06:52:10;;;;;;;15.30;12.93;;;;;;;19.55;100.00;98366.09;4978555;28;20226;-80
2023/09/10 06:54:37;;;;;;;18.07;12.87;;;;;;;19.64;100.00;98375.06;4978853;28;20206;-80
2023/09/10 06:57:04;;;;;;;16.47;12.67;;;;;;;19.65;100.00;98376.72;4978695;28;20564;-80
2023/09/10 06:59:30;;;;;;;16.90;12.77;;;;;;;19.74;100.00;98375.81;4979012;28;20238;-80
2023/09/10 07:01:57;;;;;;;15.07;12.33;;;;;;;19.79;100.00;98373.47;4978798;28;20613;-80
2023/09/10 07:04:25;;;;;;;17.00;12.57;;;;;;;19.88;100.00;98381.41;4979926;28;20218;-80
2023/09/10 07:06:53;;;;;;;17.50;12.53;;;;;;;19.98;100.00;98382.16;4979380;28;20207;-80
2023/09/10 07:09:21;;;;;;;14.43;12.30;;;;;;;20.11;100.00;98379.91;4979520;28;20240;-80
2023/09/10 07:11:48;;;;;;;16.97;13.23;;;;;;;20.25;100.00;98382.00;4979220;28;20266;-80
2023/09/10 07:14:14;;;;;;;15.43;12.33;;;;;;;20.35;100.00;98384.59;4980149;28;20215;-80
2023/09/10 07:16:41;;;;;;;17.07;13.43;;;;;;;20.46;100.00;98374.38;4979380;28;20588;-80
2023/09/10 07:19:08;;;;;;;18.37;13.17;;;;;;;20.60;100.00;98383.69;4979922;28;20269;-80
2023/09/10 07:21:34;;;;;;;17.73;12.50;;;;;;;20.71;100.00;98378.00;4979651;28;20234;-80
2023/09/10 07:24:06;;;;;;;14.77;12.50;;;;;;;20.85;100.00;98383.56;4981644;28;20222;-80
2023/09/10 07:26:32;;;;;;;13.80;12.13;;;;;;;21.00;100.00;98384.69;4982266;28;20254;-80
2023/09/10 07:28:59;;;;;;;15.10;12.00;;;;;;;21.06;100.00;98380.47;4982428;28;20214;-80
2023/09/10 07:31:25;;;;;;;15.03;12.50;;;;;;;21.13;100.00;98384.19;4982445;28;20235;-80
2023/09/10 07:33:52;;;;;;;17.23;12.10;;;;;;;21.22;100.00;98384.03;4982929;28;20207;-80
2023/09/10 07:36:18;;;;;;;14.40;12.20;;;;;;;21.38;100.00;98386.75;4982155;28;20206;-80
2023/09/10 07:38:45;;;;;;;15.17;11.93;;;;;;;21.46;100.00;98385.91;4982678;28;20224;-80
2023/09/10 07:41:13;;;;;;;15.23;12.20;;;;;;;21.55;100.00;98384.88;4981722;28;20390;-80
2023/09/10 07:43:39;;;;;;;14.93;11.67;;;;;;;21.61;100.00;98385.06;4982088;28;20232;-80
2023/09/10 07:46:06;;;;;;;16.20;12.40;;;;;;;21.66;100.00;98382.72;4982301;28;20207;-80
2023/09/10 07:48:32;;;;;;;13.23;11.50;;;;;;;21.71;100.00;98385.75;4982260;28;20206;-80
2023/09/10 07:51:00;;;;;;;15.10;11.27;;;;;;;21.79;100.00;98387.59;4981661;28;20241;-80
2023/09/10 07:53:26;;;;;;;12.73;11.17;;;;;;;21.86;100.00;98384.06;4978901;28;20207;-80
2023/09/10 07:55:53;;;;;;;12.30;10.87;;;;;;;21.95;100.00;98385.72;4978628;28;20213;-80
2023/09/10 07:58:20;;;;;;;15.53;11.53;;;;;;;22.13;100.00;98390.94;4978386;28;20592;-80
2023/09/10 08:00:47;;;;;;;13.03;11.10;;;;;;;22.21;100.00;98389.06;4979092;28;20234;-80
2023/09/10 08:03:15;;;;;;;14.53;11.00;;;;;;;22.27;100.00;98393.75;4978994;28;20211;-80
2023/09/10 08:05:41;;;;;;;12.93;11.50;;;;;;;22.32;100.00;98385.97;4978742;28;20265;-80
2023/09/10 08:08:08;;;;;;;14.97;11.87;;;;;;;22.45;100.00;98380.94;4977889;28;20277;-80
2023/09/10 08:10:35;;;;;;;15.17;11.40;;;;;;;22.56;100.00;98383.22;4978363;28;20245;-80
2023/09/10 08:13:04;;;;;;;14.43;11.33;;;;;;;22.71;100.00;98383.31;4978191;28;20214;-80
2023/09/10 08:15:32;;;;;;;12.33;10.93;;;;;;;22.75;100.00;98379.28;4978767;28;20345;-80
2023/09/10 08:17:59;;;;;;;13.33;11.37;;;;;;;22.82;99.61;98375.72;4978835;28;20700;-80
2023/09/10 08:20:25;;;;;;;13.10;10.40;;;;;;;22.92;98.71;98384.41;4977686;28;20636;-80
2023/09/10 08:22:52;;;;;;;12.27;9.63;;;;;;;23.00;98.07;98380.81;4978191;28;20261;-80
2023/09/10 08:25:18;;;;;;;11.93;10.20;;;;;;;23.10;95.50;98370.66;4978200;28;20211;-80
2023/09/10 08:27:45;;;;;;;13.10;10.70;;;;;;;23.19;96.28;98375.84;4978033;28;20211;-80
2023/09/10 08:30:12;;;;;;;13.33;11.17;;;;;;;23.31;95.61;98379.81;4977147;28;20221;-80
2023/09/10 08:32:40;;;;;;;11.47;10.27;;;;;;;23.35;94.02;98370.31;4976767;28;20578;-80
2023/09/10 08:35:07;;;;;;;14.83;11.23;;;;;;;23.49;93.44;98374.97;4977184;28;20241;-80
2023/09/10 08:37:34;;;;;;;11.70;10.33;;;;;;;23.62;93.77;98377.88;4977191;28;20221;-80
2023/09/10 08:40:00;;;;;;;12.03;10.57;;;;;;;23.76;92.97;98376.22;4977669;28;20211;-80
2023/09/10 08:42:35;;;;;;;13.17;10.57;;;;;;;23.87;91.63;98376.66;4976963;28;20233;-80
2023/09/10 08:45:06;;;;;;;13.00;10.83;;;;;;;24.00;89.43;98376.03;4977373;28;20486;-80
2023/09/10 08:47:39;;;;;;;13.03;11.23;;;;;;;24.10;88.47;98365.81;4977333;28;20266;-80
2023/09/10 08:50:09;;;;;;;13.77;11.40;;;;;;;24.09;86.88;98370.34;4976960;28;20215;-80
2023/09/10 08:52:38;;;;;;;12.00;10.50;;;;;;;24.09;86.56;98370.34;4980265;28;20534;-80
2023/09/10 08:55:06;;;;;;;12.50;10.50;;;;;;;24.00;86.39;98366.06;4980821;28;20214;-80
2023/09/10 08:57:34;;;;;;;13.50;10.70;;;;;;;24.06;86.51;98368.03;4980509;28;20220;-80
2023/09/10 09:00:01;;;;;;;13.47;10.27;;;;;;;24.28;85.98;98367.13;4979878;28;20217;-80
2023/09/10 09:02:28;;;;;;;12.60;10.60;;;;;;;24.27;85.34;98368.13;4979656;28;20780;-80
2023/09/10 09:04:54;;;;;;;11.43;10.17;;;;;;;24.31;85.19;98364.03;4979992;28;20214;-80
2023/09/10 09:07:23;;;;;;;14.40;10.23;;;;;;;24.37;84.15;98357.91;4980003;28;20221;-80
2023/09/10 09:09:56;;;;;;;13.10;10.60;;;;;;;24.48;84.82;98362.84;4980731;28;20215;-80
2023/09/10 09:12:23;;;;;;;13.17;11.00;;;;;;;24.74;81.71;98354.28;4980462;28;20225;-80
2023/09/10 09:14:51;;;;;;;12.30;10.73;;;;;;;24.86;80.60;98358.16;4980899;28;20211;-80
2023/09/10 09:17:17;;;;;;;11.83;10.50;;;;;;;24.97;81.65;98350.38;4981250;28;20695;-80
2023/09/10 09:19:44;;;;;;;13.57;10.50;;;;;;;25.08;80.53;98347.19;4982118;28;20222;-80
2023/09/10 09:22:14;;;;;;;12.97;10.83;;;;;;;25.20;79.59;98342.94;4981294;28;20764;-80
2023/09/10 09:24:42;;;;;;;11.27;9.97;;;;;;;25.31;79.28;98352.44;4982289;28;20214;-80
2023/09/10 09:27:10;;;;;;;11.33;10.13;;;;;;;25.42;78.10;98346.53;4982083;28;20226;-80
2023/09/10 09:29:37;;;;;;;13.17;9.83;;;;;;;25.54;78.89;98351.19;4981856;28;20215;-80
2023/09/10 09:32:04;;;;;;;10.77;9.67;;;;;;;25.67;76.55;98336.97;4981112;28;20223;-80
2023/09/10 09:34:33;;;;;;;10.47;9.40;;;;;;;25.76;76.72;98338.47;4981320;28;20221;-80
2023/09/10 09:36:59;;;;;;;14.00;10.07;;;;;;;25.87;74.96;98333.38;4980938;28;20221;-80
2023/09/10 09:39:25;;;;;;;10.10;8.97;;;;;;;25.96;73.22;98326.78;4981050;28;20213;-80
2023/09/10 09:41:54;;;;;;;12.00;9.80;;;;;;;26.14;71.32;98318.19;4980280;28;20242;-80
2023/09/10 09:44:21;;;;;;;10.10;8.90;;;;;;;26.09;71.36;98321.47;4979850;28;20207;-80
2023/09/10 09:46:48;;;;;;;10.60;9.47;;;;;;;26.09;71.60;98321.47;4980157;28;20207;-80
2023/09/10 09:49:14;;;;;;;9.87;8.87;;;;;;;26.14;71.16;98319.00;4980235;28;20221;-80
2023/09/10 09:51:41;;;;;;;11.43;9.23;;;;;;;26.10;70.27;98301.47;4980578;28;20250;-80
2023/09/10 09:54:08;;;;;;;12.90;10.00;;;;;;;26.16;71.25;98313.38;4980043;28;20210;-80
2023/09/10 09:56:36;;;;;;;10.50;8.80;;;;;;;26.16;70.65;98310.69;4980800;28;20207;-80
2023/09/10 09:59:06;;;;;;;10.93;9.03;;;;;;;26.15;68.74;98299.00;4980641;28;20218;-80
2023/09/10 10:01:35;;;;;;;9.45;8.27;;;;;;;26.28;68.81;98303.66;4980093;28;20242;-80
2023/09/10 10:04:02;;;;;;;12.20;9.03;;;;;;;26.50;70.86;98313.34;4979408;28;20217;-80
2023/09/10 10:06:29;;;;;;;10.38;8.98;;;;;;;26.78;69.32;98298.72;4980250;28;20215;-80
2023/09/10 10:08:55;;;;;;;10.93;9.50;;;;;;;26.91;67.18;98287.91;4980947;28;20273;-80
2023/09/10 10:11:30;;;;;;;10.60;9.45;;;;;;;26.85;67.64;98291.44;4979371;28;20255;-80
2023/09/10 10:13:58;;;;;;;9.80;8.80;;;;;;;26.80;66.56;98288.47;4980521;28;20202;-80
2023/09/10 10:16:27;;;;;;;9.10;8.20;;;;;;;26.81;66.71;98284.72;4980265;28;20207;-80
2023/09/10 10:18:54;;;;;;;12.70;9.60;;;;;;;26.94;65.57;98284.75;4977816;28;20673;-80
2023/09/10 10:21:22;;;;;;;8.60;7.80;;;;;;;26.84;64.61;98273.47;4977783;28;20441;-80
2023/09/10 10:23:49;;;;;;;10.83;8.73;;;;;;;26.89;65.36;98270.16;4978354;28;20213;-80
2023/09/10 10:26:17;;;;;;;9.50;8.50;;;;;;;26.97;64.85;98270.81;4978228;28;20233;-80
2023/09/10 10:28:45;;;;;;;9.52;8.00;;;;;;;27.06;65.76;98274.97;4978979;28;20218;-80
2023/09/10 10:31:14;;;;;;;9.30;8.30;;;;;;;27.26;62.67;98256.88;4977994;28;20230;-80
2023/09/10 10:33:49;;;;;;;10.43;8.00;;;;;;;27.22;61.14;98250.19;4978530;28;20211;-80
2023/09/10 10:36:30;;;;;;;9.10;8.20;;;;;;;27.16;60.44;98240.19;4978707;28;20214;-80
2023/09/10 10:38:57;;;;;;;9.55;7.80;;;;;;;27.08;60.70;98240.34;4977999;28;20206;-80
2023/09/10 10:41:25;;;;;;;9.02;7.80;;;;;;;27.18;61.90;98248.13;4976574;28;20246;-80
2023/09/10 10:43:56;;;;;;;8.93;7.50;;;;;;;27.25;59.08;98236.19;4977292;28;20214;-80
2023/09/10 10:46:26;;;;;;;8.82;7.93;;;;;;;27.43;60.66;98244.56;4977612;28;20221;-80
2023/09/10 10:48:56;;;;;;;10.07;7.85;;;;;;;27.50;59.68;98237.25;4978703;28;20215;-80
2023/09/10 10:51:23;;;;;;;8.68;7.43;;;;;;;27.50;58.68;98231.81;4977778;28;20238;-80
2023/09/10 10:53:50;;;;;;;8.65;7.32;;;;;;;27.50;57.77;98226.38;4975840;28;20561;-80
2023/09/10 10:56:17;;;;;;;9.02;7.25;;;;;;;27.45;57.37;98224.31;4976365;28;20210;-80
2023/09/10 10:58:45;;;;;;;8.10;7.22;;;;;;;27.42;58.01;98229.31;4976328;28;20226;-80
2023/09/10 11:01:12;;;;;;;8.70;7.50;;;;;;;27.64;55.91;98217.19;4975575;28;20238;-80
2023/09/10 11:03:38;;;;;;;8.87;7.97;;;;;;;27.61;56.61;98223.03;4975364;28;20214;-79
2023/09/10 11:06:07;;;;;;;8.23;7.43;;;;;;;27.54;56.82;98220.34;4975326;28;20217;-79
2023/09/10 11:08:36;;;;;;;9.27;7.05;;;;;;;27.72;54.40;98206.09;4974971;28;20214;-79
2023/09/10 11:11:04;;;;;;;9.48;7.57;;;;;;;27.80;54.04;98197.75;4974745;28;20583;-79
2023/09/10 11:13:32;;;;;;;7.72;7.00;;;;;;;27.90;52.42;98198.16;4975310;28;20794;-79
2023/09/10 11:16:18;;;;;;;8.02;6.38;;;;;;;27.88;52.03;98220.09;4974518;28;20226;-79